sensor_id;sensor_type;location;lat;lon;timestamp;pressure;altitude;pressure_sealevel;temperature;humidity
59104;BME280;51449;51.676;5.812;2022-09-01T00:02:25;102016.19;;;17.50;51.79
59104;BME280;51449;51.676;5.812;2022-09-01T00:04:48;102012.94;;;17.48;52.19
59104;BME280;51449;51.676;5.812;2022-09-01T00:07:12;102018.06;;;17.46;52.55
59104;BME280;51449;51.676;5.812;2022-09-01T00:09:34;102009.69;;;17.46;52.35
59104;BME280;51449;51.676;5.812;2022-09-01T00:11:57;102010.53;;;17.46;52.65
59104;BME280;51449;51.676;5.812;2022-09-01T00:14:26;102012.47;;;17.46;52.65
59104;BME280;51449;51.676;5.812;2022-09-01T00:16:51;102020.41;;;17.44;52.82
59104;BME280;51449;51.676;5.812;2022-09-01T00:19:14;102005.63;;;17.43;52.82
59104;BME280;51449;51.676;5.812;2022-09-01T00:21:40;102016.44;;;17.45;53.09
59104;BME280;51449;51.676;5.812;2022-09-01T00:24:04;102013.56;;;17.41;53.17
59104;BME280;51449;51.676;5.812;2022-09-01T00:26:27;102008.78;;;17.42;53.12
59104;BME280;51449;51.676;5.812;2022-09-01T00:28:50;102010.78;;;17.41;53.29
59104;BME280;51449;51.676;5.812;2022-09-01T00:31:12;102012.28;;;17.39;52.90
59104;BME280;51449;51.676;5.812;2022-09-01T00:33:40;102013.44;;;17.38;53.08
59104;BME280;51449;51.676;5.812;2022-09-01T00:36:03;102011.81;;;17.37;53.10
59104;BME280;51449;51.676;5.812;2022-09-01T00:38:26;102010.66;;;17.38;52.83
59104;BME280;51449;51.676;5.812;2022-09-01T00:40:48;102021.00;;;17.37;53.17
59104;BME280;51449;51.676;5.812;2022-09-01T00:46:03;102013.34;;;17.34;53.36
59104;BME280;51449;51.676;5.812;2022-09-01T00:48:29;102009.63;;;17.30;53.48
59104;BME280;51449;51.676;5.812;2022-09-01T00:50:53;102015.06;;;17.26;53.83
59104;BME280;51449;51.676;5.812;2022-09-01T00:53:15;102007.09;;;17.25;53.51
59104;BME280;51449;51.676;5.812;2022-09-01T00:55:38;102008.22;;;17.24;53.75
59104;BME280;51449;51.676;5.812;2022-09-01T00:58:01;101997.91;;;17.24;53.90
59104;BME280;51449;51.676;5.812;2022-09-01T01:00:28;102006.16;;;17.21;53.87
59104;BME280;51449;51.676;5.812;2022-09-01T01:02:52;102005.22;;;17.17;53.89
59104;BME280;51449;51.676;5.812;2022-09-01T01:05:17;102001.88;;;17.11;54.25
59104;BME280;51449;51.676;5.812;2022-09-01T01:07:39;102008.94;;;17.08;54.28
59104;BME280;51449;51.676;5.812;2022-09-01T01:10:10;101990.16;;;17.05;54.17
59104;BME280;51449;51.676;5.812;2022-09-01T01:12:35;101998.50;;;17.05;54.08
59104;BME280;51449;51.676;5.812;2022-09-01T01:14:58;102001.63;;;17.04;54.32
59104;BME280;51449;51.676;5.812;2022-09-01T01:17:22;101992.00;;;17.01;54.34
59104;BME280;51449;51.676;5.812;2022-09-01T01:19:46;101996.22;;;16.95;54.50
59104;BME280;51449;51.676;5.812;2022-09-01T01:25:43;101996.66;;;16.85;55.18
59104;BME280;51449;51.676;5.812;2022-09-01T01:30:34;101997.56;;;16.77;54.67
59104;BME280;51449;51.676;5.812;2022-09-01T01:32:57;102001.50;;;16.76;55.36
59104;BME280;51449;51.676;5.812;2022-09-01T01:35:19;101999.06;;;16.74;55.35
59104;BME280;51449;51.676;5.812;2022-09-01T01:37:45;102003.47;;;16.75;55.26
59104;BME280;51449;51.676;5.812;2022-09-01T01:40:13;102007.75;;;16.73;55.11
59104;BME280;51449;51.676;5.812;2022-09-01T01:42:37;102007.75;;;16.73;54.99
59104;BME280;51449;51.676;5.812;2022-09-01T01:44:59;102009.63;;;16.68;55.71
59104;BME280;51449;51.676;5.812;2022-09-01T01:47:21;102002.78;;;16.66;55.38
59104;BME280;51449;51.676;5.812;2022-09-01T01:49:43;102005.09;;;16.64;55.20
59104;BME280;51449;51.676;5.812;2022-09-01T01:52:05;102016.56;;;16.62;55.35
59104;BME280;51449;51.676;5.812;2022-09-01T01:54:29;102016.22;;;16.64;55.00
59104;BME280;51449;51.676;5.812;2022-09-01T01:56:53;102017.03;;;16.64;55.40
59104;BME280;51449;51.676;5.812;2022-09-01T01:59:19;102020.16;;;16.63;55.72
59104;BME280;51449;51.676;5.812;2022-09-01T02:01:42;102016.09;;;16.60;55.75
59104;BME280;51449;51.676;5.812;2022-09-01T02:04:10;102012.88;;;16.58;55.87
59104;BME280;51449;51.676;5.812;2022-09-01T02:06:33;102013.19;;;16.57;55.88
59104;BME280;51449;51.676;5.812;2022-09-01T02:08:56;102011.59;;;16.56;55.73
59104;BME280;51449;51.676;5.812;2022-09-01T02:11:19;102013.53;;;16.55;55.85
59104;BME280;51449;51.676;5.812;2022-09-01T02:13:41;102011.94;;;16.54;55.78
59104;BME280;51449;51.676;5.812;2022-09-01T02:16:07;102017.03;;;16.52;56.11
59104;BME280;51449;51.676;5.812;2022-09-01T02:18:37;102013.44;;;16.52;56.41
59104;BME280;51449;51.676;5.812;2022-09-01T02:21:10;102013.91;;;16.54;56.07
59104;BME280;51449;51.676;5.812;2022-09-01T02:23:39;102009.47;;;16.53;56.19
59104;BME280;51449;51.676;5.812;2022-09-01T02:26:02;102017.03;;;16.52;56.33
59104;BME280;51449;51.676;5.812;2022-09-01T02:28:38;102020.59;;;16.53;56.20
59104;BME280;51449;51.676;5.812;2022-09-01T02:31:03;102014.22;;;16.52;56.28
59104;BME280;51449;51.676;5.812;2022-09-01T02:33:30;102007.88;;;16.52;56.36
59104;BME280;51449;51.676;5.812;2022-09-01T02:35:55;102012.84;;;16.46;56.51
59104;BME280;51449;51.676;5.812;2022-09-01T02:38:23;102010.25;;;16.41;56.69
59104;BME280;51449;51.676;5.812;2022-09-01T02:40:51;102002.63;;;16.38;56.77
59104;BME280;51449;51.676;5.812;2022-09-01T02:43:15;102007.69;;;16.36;56.87
59104;BME280;51449;51.676;5.812;2022-09-01T02:45:42;102004.44;;;16.34;56.76
59104;BME280;51449;51.676;5.812;2022-09-01T02:48:04;102012.69;;;16.30;56.74
59104;BME280;51449;51.676;5.812;2022-09-01T02:50:40;102001.56;;;16.30;56.77
59104;BME280;51449;51.676;5.812;2022-09-01T02:53:03;101997.97;;;16.30;56.84
59104;BME280;51449;51.676;5.812;2022-09-01T02:55:30;101997.97;;;16.30;56.75
59104;BME280;51449;51.676;5.812;2022-09-01T02:57:53;101996.34;;;16.29;56.69
59104;BME280;51449;51.676;5.812;2022-09-01T03:00:18;101991.13;;;16.27;56.91
59104;BME280;51449;51.676;5.812;2022-09-01T03:02:50;101993.09;;;16.26;56.78
59104;BME280;51449;51.676;5.812;2022-09-01T03:05:13;101998.53;;;16.23;56.71
59104;BME280;51449;51.676;5.812;2022-09-01T03:07:37;101993.31;;;16.21;56.78
59104;BME280;51449;51.676;5.812;2022-09-01T03:09:59;101992.38;;;16.17;56.79
59104;BME280;51449;51.676;5.812;2022-09-01T03:12:23;101999.78;;;16.13;56.53
59104;BME280;51449;51.676;5.812;2022-09-01T03:14:45;101996.03;;;16.09;56.75
59104;BME280;51449;51.676;5.812;2022-09-01T03:17:07;101994.31;;;16.04;56.98
59104;BME280;51449;51.676;5.812;2022-09-01T03:19:29;101990.91;;;15.99;56.92
59104;BME280;51449;51.676;5.812;2022-09-01T03:22:00;101990.00;;;15.95;57.13
59104;BME280;51449;51.676;5.812;2022-09-01T03:24:25;102001.31;;;15.90;57.26
59104;BME280;51449;51.676;5.812;2022-09-01T03:26:49;101990.06;;;15.86;57.29
59104;BME280;51449;51.676;5.812;2022-09-01T03:29:13;102004.66;;;15.83;57.29
59104;BME280;51449;51.676;5.812;2022-09-01T03:31:36;101997.34;;;15.78;57.64
59104;BME280;51449;51.676;5.812;2022-09-01T03:33:59;101998.03;;;15.75;57.36
59104;BME280;51449;51.676;5.812;2022-09-01T03:36:26;101990.81;;;15.74;57.31
59104;BME280;51449;51.676;5.812;2022-09-01T03:38:49;101999.53;;;15.73;57.32
59104;BME280;51449;51.676;5.812;2022-09-01T03:41:16;101992.31;;;15.72;57.42
59104;BME280;51449;51.676;5.812;2022-09-01T03:43:39;101996.75;;;15.73;57.14
59104;BME280;51449;51.676;5.812;2022-09-01T03:46:07;101993.78;;;15.69;57.55
59104;BME280;51449;51.676;5.812;2022-09-01T03:48:31;101991.69;;;15.66;57.41
59104;BME280;51449;51.676;5.812;2022-09-01T03:50:54;101994.47;;;15.66;57.34
59104;BME280;51449;51.676;5.812;2022-09-01T03:53:22;101990.06;;;15.65;57.44
59104;BME280;51449;51.676;5.812;2022-09-01T03:55:50;101998.28;;;15.61;57.62
59104;BME280;51449;51.676;5.812;2022-09-01T03:58:17;101990.25;;;15.60;57.68
59104;BME280;51449;51.676;5.812;2022-09-01T04:00:42;101991.91;;;15.61;57.37
59104;BME280;51449;51.676;5.812;2022-09-01T04:03:11;101990.63;;;15.58;57.44
59104;BME280;51449;51.676;5.812;2022-09-01T04:05:36;101995.34;;;15.58;57.36
59104;BME280;51449;51.676;5.812;2022-09-01T04:08:02;101988.50;;;15.55;57.47
59104;BME280;51449;51.676;5.812;2022-09-01T04:10:26;101991.63;;;15.54;57.47
59104;BME280;51449;51.676;5.812;2022-09-01T04:12:48;101992.28;;;15.51;57.37
59104;BME280;51449;51.676;5.812;2022-09-01T04:15:12;101991.84;;;15.49;57.72
59104;BME280;51449;51.676;5.812;2022-09-01T04:17:38;101982.22;;;15.46;57.65
59104;BME280;51449;51.676;5.812;2022-09-01T04:20:19;101985.34;;;15.45;57.51
59104;BME280;51449;51.676;5.812;2022-09-01T04:22:42;101992.84;;;15.44;57.55
59104;BME280;51449;51.676;5.812;2022-09-01T04:25:04;101994.00;;;15.43;57.54
59104;BME280;51449;51.676;5.812;2022-09-01T04:27:27;101991.91;;;15.40;57.74
59104;BME280;51449;51.676;5.812;2022-09-01T04:29:49;101998.94;;;15.37;57.66
59104;BME280;51449;51.676;5.812;2022-09-01T04:32:19;101990.13;;;15.35;57.41
59104;BME280;51449;51.676;5.812;2022-09-01T04:34:45;101986.88;;;15.33;57.96
59104;BME280;51449;51.676;5.812;2022-09-01T04:37:16;101991.63;;;15.33;57.78
59104;BME280;51449;51.676;5.812;2022-09-01T04:39:51;101993.91;;;15.31;57.78
59104;BME280;51449;51.676;5.812;2022-09-01T04:42:17;101994.28;;;15.29;57.28
59104;BME280;51449;51.676;5.812;2022-09-01T04:44:41;101992.31;;;15.30;57.60
59104;BME280;51449;51.676;5.812;2022-09-01T04:47:03;101990.34;;;15.30;57.65
59104;BME280;51449;51.676;5.812;2022-09-01T04:49:31;101993.09;;;15.30;57.63
59104;BME280;51449;51.676;5.812;2022-09-01T04:51:54;101992.31;;;15.30;57.59
59104;BME280;51449;51.676;5.812;2022-09-01T04:54:18;101987.06;;;15.28;57.54
59104;BME280;51449;51.676;5.812;2022-09-01T04:56:44;101994.94;;;15.26;57.57
59104;BME280;51449;51.676;5.812;2022-09-01T04:59:12;101987.75;;;15.25;57.70
59104;BME280;51449;51.676;5.812;2022-09-01T05:01:38;101989.03;;;15.28;57.81
59104;BME280;51449;51.676;5.812;2022-09-01T05:04:05;101991.34;;;15.26;57.62
59104;BME280;51449;51.676;5.812;2022-09-01T05:06:31;101993.31;;;15.25;57.58
59104;BME280;51449;51.676;5.812;2022-09-01T05:08:55;101999.66;;;15.26;57.40
59104;BME280;51449;51.676;5.812;2022-09-01T05:11:38;102001.63;;;15.25;57.64
59104;BME280;51449;51.676;5.812;2022-09-01T05:14:12;101994.94;;;15.26;57.56
59104;BME280;51449;51.676;5.812;2022-09-01T05:16:34;101992.16;;;15.26;57.47
59104;BME280;51449;51.676;5.812;2022-09-01T05:18:56;101998.06;;;15.25;57.39
59104;BME280;51449;51.676;5.812;2022-09-01T05:21:24;102001.63;;;15.25;57.33
59104;BME280;51449;51.676;5.812;2022-09-01T05:23:49;102000.16;;;15.28;57.68
59104;BME280;51449;51.676;5.812;2022-09-01T05:26:16;101997.06;;;15.29;57.40
59104;BME280;51449;51.676;5.812;2022-09-01T05:28:40;102005.84;;;15.31;57.60
59104;BME280;51449;51.676;5.812;2022-09-01T05:31:02;102004.00;;;15.35;57.33
59104;BME280;51449;51.676;5.812;2022-09-01T05:33:25;102004.97;;;15.39;57.43
59104;BME280;51449;51.676;5.812;2022-09-01T05:35:57;102008.72;;;15.44;57.26
59104;BME280;51449;51.676;5.812;2022-09-01T05:38:23;102006.06;;;15.47;57.50
59104;BME280;51449;51.676;5.812;2022-09-01T05:40:55;102002.28;;;15.52;57.22
59104;BME280;51449;51.676;5.812;2022-09-01T05:43:26;102007.94;;;15.55;57.08
59104;BME280;51449;51.676;5.812;2022-09-01T05:45:49;102012.50;;;15.60;56.88
59104;BME280;51449;51.676;5.812;2022-09-01T05:48:28;102016.22;;;15.64;56.84
59104;BME280;51449;51.676;5.812;2022-09-01T05:50:52;102013.22;;;15.69;57.02
59104;BME280;51449;51.676;5.812;2022-09-01T05:53:19;102012.72;;;15.76;56.99
59104;BME280;51449;51.676;5.812;2022-09-01T05:55:46;102010.22;;;15.83;56.66
59104;BME280;51449;51.676;5.812;2022-09-01T05:58:11;102010.94;;;15.92;56.96
59104;BME280;51449;51.676;5.812;2022-09-01T06:00:37;102014.91;;;16.03;56.59
59104;BME280;51449;51.676;5.812;2022-09-01T06:03:00;102017.75;;;16.16;56.29
59104;BME280;51449;51.676;5.812;2022-09-01T06:05:26;102017.44;;;16.30;56.23
59104;BME280;51449;51.676;5.812;2022-09-01T06:07:49;102018.59;;;16.41;56.03
59104;BME280;51449;51.676;5.812;2022-09-01T06:10:11;102021.78;;;16.52;55.96
59104;BME280;51449;51.676;5.812;2022-09-01T06:12:35;102022.94;;;16.63;55.46
59104;BME280;51449;51.676;5.812;2022-09-01T06:14:57;102013.69;;;16.71;55.18
59104;BME280;51449;51.676;5.812;2022-09-01T06:17:23;102024.38;;;16.81;54.75
59104;BME280;51449;51.676;5.812;2022-09-01T06:19:49;102020.00;;;16.93;54.56
59104;BME280;51449;51.676;5.812;2022-09-01T06:22:19;102027.50;;;17.04;54.16
59104;BME280;51449;51.676;5.812;2022-09-01T06:24:41;102027.88;;;17.15;53.72
59104;BME280;51449;51.676;5.812;2022-09-01T06:27:06;102027.03;;;17.27;53.27
59104;BME280;51449;51.676;5.812;2022-09-01T06:29:32;102020.28;;;17.40;52.98
59104;BME280;51449;51.676;5.812;2022-09-01T06:31:54;102021.19;;;17.57;52.93
59104;BME280;51449;51.676;5.812;2022-09-01T06:34:17;102026.13;;;17.75;53.13
59104;BME280;51449;51.676;5.812;2022-09-01T06:36:40;102027.00;;;17.92;51.74
59104;BME280;51449;51.676;5.812;2022-09-01T06:39:04;102022.19;;;18.05;51.26
59104;BME280;51449;51.676;5.812;2022-09-01T06:41:26;102021.06;;;18.22;50.88
59104;BME280;51449;51.676;5.812;2022-09-01T06:43:50;102029.09;;;18.39;50.15
59104;BME280;51449;51.676;5.812;2022-09-01T06:46:19;102020.38;;;18.56;49.65
59104;BME280;51449;51.676;5.812;2022-09-01T06:48:42;102026.22;;;18.67;48.86
59104;BME280;51449;51.676;5.812;2022-09-01T06:51:08;102022.94;;;18.77;48.80
59104;BME280;51449;51.676;5.812;2022-09-01T06:53:39;102028.00;;;18.88;48.69
59104;BME280;51449;51.676;5.812;2022-09-01T06:56:04;102018.31;;;19.01;49.37
59104;BME280;51449;51.676;5.812;2022-09-01T06:58:27;102031.44;;;19.16;48.89
59104;BME280;51449;51.676;5.812;2022-09-01T07:00:51;102031.72;;;19.27;48.62
59104;BME280;51449;51.676;5.812;2022-09-01T07:03:14;102030.31;;;19.37;48.48
59104;BME280;51449;51.676;5.812;2022-09-01T07:05:52;102036.88;;;19.44;47.53
59104;BME280;51449;51.676;5.812;2022-09-01T07:08:43;102039.59;;;19.41;47.06
59104;BME280;51449;51.676;5.812;2022-09-01T07:11:32;102033.13;;;19.37;47.20
59104;BME280;51449;51.676;5.812;2022-09-01T07:14:17;102034.28;;;19.36;47.41
59104;BME280;51449;51.676;5.812;2022-09-01T07:16:41;102043.13;;;19.38;47.29
59104;BME280;51449;51.676;5.812;2022-09-01T07:19:14;102036.38;;;19.39;47.20
59104;BME280;51449;51.676;5.812;2022-09-01T07:21:43;102041.56;;;19.40;47.06
59104;BME280;51449;51.676;5.812;2022-09-01T07:24:26;102043.66;;;19.43;46.70
59104;BME280;51449;51.676;5.812;2022-09-01T07:27:10;102038.19;;;19.51;47.14
59104;BME280;51449;51.676;5.812;2022-09-01T07:29:33;102040.50;;;19.64;47.37
59104;BME280;51449;51.676;5.812;2022-09-01T07:31:55;102040.41;;;19.77;47.36
59104;BME280;51449;51.676;5.812;2022-09-01T07:34:38;102038.72;;;19.92;47.04
59104;BME280;51449;51.676;5.812;2022-09-01T07:37:03;102033.34;;;20.02;46.73
59104;BME280;51449;51.676;5.812;2022-09-01T07:39:45;102044.75;;;20.13;46.29
59104;BME280;51449;51.676;5.812;2022-09-01T07:42:33;102043.31;;;20.23;46.75
59104;BME280;51449;51.676;5.812;2022-09-01T07:45:44;102038.00;;;20.37;46.18
59104;BME280;51449;51.676;5.812;2022-09-01T07:48:10;102028.63;;;20.49;46.65
59104;BME280;51449;51.676;5.812;2022-09-01T07:50:54;102040.09;;;20.63;45.74
59104;BME280;51449;51.676;5.812;2022-09-01T07:53:37;102028.28;;;20.73;45.48
59104;BME280;51449;51.676;5.812;2022-09-01T07:56:08;102028.44;;;20.84;45.38
59104;BME280;51449;51.676;5.812;2022-09-01T07:58:38;102026.31;;;21.01;45.13
59104;BME280;51449;51.676;5.812;2022-09-01T08:01:07;102028.13;;;21.16;44.67
59104;BME280;51449;51.676;5.812;2022-09-01T08:03:32;102032.34;;;21.29;44.25
59104;BME280;51449;51.676;5.812;2022-09-01T08:05:54;102037.31;;;21.40;44.45
59104;BME280;51449;51.676;5.812;2022-09-01T08:08:21;102027.06;;;21.51;44.25
59104;BME280;51449;51.676;5.812;2022-09-01T08:10:49;102026.41;;;21.61;44.11
59104;BME280;51449;51.676;5.812;2022-09-01T08:13:12;102031.38;;;21.75;43.85
59104;BME280;51449;51.676;5.812;2022-09-01T08:15:41;102029.16;;;21.91;44.04
59104;BME280;51449;51.676;5.812;2022-09-01T08:18:23;102034.16;;;22.05;43.13
59104;BME280;51449;51.676;5.812;2022-09-01T08:20:45;102035.47;;;22.15;43.01
59104;BME280;51449;51.676;5.812;2022-09-01T08:23:26;102032.84;;;22.29;42.88
59104;BME280;51449;51.676;5.812;2022-09-01T08:25:48;102039.34;;;22.37;41.99
59104;BME280;51449;51.676;5.812;2022-09-01T08:28:13;102033.00;;;22.43;42.00
59104;BME280;51449;51.676;5.812;2022-09-01T08:30:40;102027.41;;;22.51;41.65
59104;BME280;51449;51.676;5.812;2022-09-01T08:33:15;102029.56;;;22.64;41.80
59104;BME280;51449;51.676;5.812;2022-09-01T08:35:41;102032.53;;;22.82;41.21
59104;BME280;51449;51.676;5.812;2022-09-01T08:38:08;102027.00;;;22.93;41.07
59104;BME280;51449;51.676;5.812;2022-09-01T08:40:31;102027.09;;;23.04;40.00
59104;BME280;51449;51.676;5.812;2022-09-01T08:43:17;102025.97;;;23.16;39.46
59104;BME280;51449;51.676;5.812;2022-09-01T08:46:13;102027.22;;;23.25;39.57
59104;BME280;51449;51.676;5.812;2022-09-01T08:48:55;102034.53;;;23.34;38.84
59104;BME280;51449;51.676;5.812;2022-09-01T08:52:35;102033.78;;;23.44;38.91
59104;BME280;51449;51.676;5.812;2022-09-01T08:55:25;102030.19;;;23.50;38.41
59104;BME280;51449;51.676;5.812;2022-09-01T08:57:54;102032.25;;;23.61;38.01
59104;BME280;51449;51.676;5.812;2022-09-01T09:00:23;102032.31;;;23.68;37.94
59104;BME280;51449;51.676;5.812;2022-09-01T09:03:00;102025.09;;;23.74;37.35
59104;BME280;51449;51.676;5.812;2022-09-01T09:05:36;102027.56;;;23.83;37.47
59104;BME280;51449;51.676;5.812;2022-09-01T09:16:34;102007.56;;;24.27;37.57
59104;BME280;51449;51.676;5.812;2022-09-01T09:19:21;102018.03;;;24.38;36.91
59104;BME280;51449;51.676;5.812;2022-09-01T09:21:48;102009.19;;;24.43;36.80
59104;BME280;51449;51.676;5.812;2022-09-01T09:27:07;102013.25;;;24.67;36.30
59104;BME280;51449;51.676;5.812;2022-09-01T09:29:31;102006.00;;;24.76;35.90
59104;BME280;51449;51.676;5.812;2022-09-01T09:32:07;101997.53;;;24.84;35.11
59104;BME280;51449;51.676;5.812;2022-09-01T09:34:50;102008.41;;;24.89;35.54
59104;BME280;51449;51.676;5.812;2022-09-01T09:37:20;102001.53;;;25.04;35.85
59104;BME280;51449;51.676;5.812;2022-09-01T09:40:05;102005.56;;;25.21;34.58
59104;BME280;51449;51.676;5.812;2022-09-01T09:42:38;101994.69;;;25.19;34.14
59104;BME280;51449;51.676;5.812;2022-09-01T09:45:01;101996.31;;;25.20;34.32
59104;BME280;51449;51.676;5.812;2022-09-01T09:47:42;101994.66;;;25.30;34.69
59104;BME280;51449;51.676;5.812;2022-09-01T09:50:26;101984.56;;;25.40;34.64
59104;BME280;51449;51.676;5.812;2022-09-01T09:53:13;101983.31;;;25.48;33.99
59104;BME280;51449;51.676;5.812;2022-09-01T09:55:58;101968.78;;;25.53;33.91
59104;BME280;51449;51.676;5.812;2022-09-01T09:58:28;101970.75;;;25.63;32.94
59104;BME280;51449;51.676;5.812;2022-09-01T10:03:47;101960.19;;;25.75;31.31
59104;BME280;51449;51.676;5.812;2022-09-01T10:06:28;101960.19;;;25.86;31.33
59104;BME280;51449;51.676;5.812;2022-09-01T10:09:32;101956.50;;;25.96;31.23
59104;BME280;51449;51.676;5.812;2022-09-01T10:11:58;101958.81;;;26.12;30.91
59104;BME280;51449;51.676;5.812;2022-09-01T10:14:26;101955.56;;;26.17;30.65
59104;BME280;51449;51.676;5.812;2022-09-01T10:17:20;101955.56;;;26.17;30.21
59104;BME280;51449;51.676;5.812;2022-09-01T10:19:55;101960.75;;;26.18;30.25
59104;BME280;51449;51.676;5.812;2022-09-01T10:22:26;101959.53;;;26.23;30.35
59104;BME280;51449;51.676;5.812;2022-09-01T10:24:48;101962.69;;;26.32;30.15
59104;BME280;51449;51.676;5.812;2022-09-01T10:27:24;101953.38;;;26.39;30.11
59104;BME280;51449;51.676;5.812;2022-09-01T10:29:56;101951.34;;;26.36;29.75
59104;BME280;51449;51.676;5.812;2022-09-01T10:32:55;101946.47;;;26.43;29.68
59104;BME280;51449;51.676;5.812;2022-09-01T10:35:34;101947.25;;;26.44;29.44
59104;BME280;51449;51.676;5.812;2022-09-01T10:38:07;101949.28;;;26.43;29.46
59104;BME280;51449;51.676;5.812;2022-09-01T10:42:56;101948.00;;;26.52;28.24
59104;BME280;51449;51.676;5.812;2022-09-01T10:45:30;101944.84;;;26.42;28.16
59104;BME280;51449;51.676;5.812;2022-09-01T10:47:54;101940.47;;;26.34;28.71
59104;BME280;51449;51.676;5.812;2022-09-01T10:50:30;101939.28;;;26.32;28.66
59104;BME280;51449;51.676;5.812;2022-09-01T10:52:58;101940.03;;;26.36;28.04
59104;BME280;51449;51.676;5.812;2022-09-01T10:55:25;101933.16;;;26.40;27.67
59104;BME280;51449;51.676;5.812;2022-09-01T10:58:18;101929.88;;;26.45;28.15
59104;BME280;51449;51.676;5.812;2022-09-01T11:01:11;101924.50;;;26.62;28.02
59104;BME280;51449;51.676;5.812;2022-09-01T11:03:55;101928.03;;;26.73;26.82
59104;BME280;51449;51.676;5.812;2022-09-01T11:09:01;101923.91;;;26.81;26.61
59104;BME280;51449;51.676;5.812;2022-09-01T11:11:43;101927.91;;;26.87;26.31
59104;BME280;51449;51.676;5.812;2022-09-01T11:14:22;101922.97;;;26.95;26.35
59104;BME280;51449;51.676;5.812;2022-09-01T11:17:25;101932.16;;;27.03;25.61
59104;BME280;51449;51.676;5.812;2022-09-01T11:22:25;101926.44;;;27.06;25.42
59104;BME280;51449;51.676;5.812;2022-09-01T11:25:20;101922.75;;;27.13;25.52
59104;BME280;51449;51.676;5.812;2022-09-01T11:35:38;101917.56;;;27.08;25.26
59104;BME280;51449;51.676;5.812;2022-09-01T11:38:03;101918.72;;;27.10;25.59
59104;BME280;51449;51.676;5.812;2022-09-01T11:40:32;101915.50;;;27.12;25.41
59104;BME280;51449;51.676;5.812;2022-09-01T11:42:55;101907.75;;;27.16;25.41
59104;BME280;51449;51.676;5.812;2022-09-01T11:45:28;101916.69;;;27.15;25.69
59104;BME280;51449;51.676;5.812;2022-09-01T11:47:57;101908.66;;;27.09;25.42
59104;BME280;51449;51.676;5.812;2022-09-01T11:50:31;101905.81;;;27.09;25.48
59104;BME280;51449;51.676;5.812;2022-09-01T11:53:20;101906.16;;;27.15;25.42
59104;BME280;51449;51.676;5.812;2022-09-01T11:55:45;101904.56;;;27.14;25.61
59104;BME280;51449;51.676;5.812;2022-09-01T12:00:49;101897.63;;;27.19;25.68
59104;BME280;51449;51.676;5.812;2022-09-01T12:03:22;101898.38;;;27.26;25.07
59104;BME280;51449;51.676;5.812;2022-09-01T12:05:58;101892.28;;;27.28;25.07
59104;BME280;51449;51.676;5.812;2022-09-01T12:08:24;101893.84;;;27.32;24.94
59104;BME280;51449;51.676;5.812;2022-09-01T12:10:48;101886.53;;;27.35;25.14
59104;BME280;51449;51.676;5.812;2022-09-01T12:13:17;101872.78;;;27.33;25.29
59104;BME280;51449;51.676;5.812;2022-09-01T12:15:42;101885.91;;;27.20;25.48
59104;BME280;51449;51.676;5.812;2022-09-01T12:18:28;101882.66;;;27.18;25.84
59104;BME280;51449;51.676;5.812;2022-09-01T12:20:58;101870.50;;;27.25;26.23
59104;BME280;51449;51.676;5.812;2022-09-01T12:23:31;101875.25;;;27.31;25.31
59104;BME280;51449;51.676;5.812;2022-09-01T12:26:00;101876.47;;;27.30;24.87
59104;BME280;51449;51.676;5.812;2022-09-01T12:28:30;101877.31;;;27.27;24.79
59104;BME280;51449;51.676;5.812;2022-09-01T12:30:53;101876.47;;;27.30;24.76
59104;BME280;51449;51.676;5.812;2022-09-01T12:33:16;101869.13;;;27.37;25.13
59104;BME280;51449;51.676;5.812;2022-09-01T12:35:44;101869.41;;;27.46;25.19
59104;BME280;51449;51.676;5.812;2022-09-01T12:40:41;101865.63;;;27.56;25.20
59104;BME280;51449;51.676;5.812;2022-09-01T12:43:03;101870.00;;;27.61;24.85
59104;BME280;51449;51.676;5.812;2022-09-01T12:45:54;101862.22;;;27.65;25.09
59104;BME280;51449;51.676;5.812;2022-09-01T12:48:35;101869.81;;;27.71;24.92
59104;BME280;51449;51.676;5.812;2022-09-01T12:51:01;101865.41;;;27.70;24.59
59104;BME280;51449;51.676;5.812;2022-09-01T12:53:58;101864.16;;;27.71;24.50
59104;BME280;51449;51.676;5.812;2022-09-01T12:56:31;101850.81;;;27.72;24.75
59104;BME280;51449;51.676;5.812;2022-09-01T12:59:24;101852.75;;;27.75;24.83
59104;BME280;51449;51.676;5.812;2022-09-01T13:05:37;101854.91;;;27.67;23.57
59104;BME280;51449;51.676;5.812;2022-09-01T13:08:15;101848.06;;;27.65;23.86
59104;BME280;51449;51.676;5.812;2022-09-01T13:10:47;101841.94;;;27.70;24.18
59104;BME280;51449;51.676;5.812;2022-09-01T13:13:13;101847.06;;;27.79;24.43
59104;BME280;51449;51.676;5.812;2022-09-01T13:15:39;101841.31;;;27.86;24.22
59104;BME280;51449;51.676;5.812;2022-09-01T13:18:04;101832.31;;;27.91;24.17
59104;BME280;51449;51.676;5.812;2022-09-01T13:20:26;101830.78;;;27.86;23.92
59104;BME280;51449;51.676;5.812;2022-09-01T13:22:48;101833.31;;;27.77;24.49
59104;BME280;51449;51.676;5.812;2022-09-01T13:25:12;101828.47;;;27.78;24.42
59104;BME280;51449;51.676;5.812;2022-09-01T13:27:39;101835.69;;;27.82;24.21
59104;BME280;51449;51.676;5.812;2022-09-01T13:30:08;101830.03;;;27.82;23.72
59104;BME280;51449;51.676;5.812;2022-09-01T13:32:31;101832.81;;;27.86;24.13
59104;BME280;51449;51.676;5.812;2022-09-01T13:34:54;101817.66;;;27.96;24.11
59104;BME280;51449;51.676;5.812;2022-09-01T13:37:16;101819.59;;;28.03;23.72
59104;BME280;51449;51.676;5.812;2022-09-01T13:39:38;101820.00;;;28.01;24.08
59104;BME280;51449;51.676;5.812;2022-09-01T13:42:00;101817.63;;;28.00;23.79
59104;BME280;51449;51.676;5.812;2022-09-01T13:44:22;101815.97;;;28.02;24.00
59104;BME280;51449;51.676;5.812;2022-09-01T13:46:45;101809.34;;;28.09;23.96
59104;BME280;51449;51.676;5.812;2022-09-01T13:49:27;101805.66;;;28.12;23.92